Time;durP1;ratioP1;P1;durP2;ratioP2;P2;SDS_P1;SDS_P2;PMS_P1;PMS_P2;Temp;Humidity;BMP_temperature;BMP_pressure;BME280_temperature;BME280_humidity;BME280_pressure;Samples;Min_cycle;Max_cycle;Signal;HPM_P1;HPM_P2
2023/06/21 00:01:57;;;;;;;21.15;14.98;;;19.60;99.90;;;;;;5060281;28;20037;-78
2023/06/21 00:04:23;;;;;;;18.13;15.25;;;19.70;99.90;;;;;;5041193;28;20037;-79
2023/06/21 00:06:49;;;;;;;19.52;15.18;;;19.70;99.90;;;;;;5048231;28;20044;-79
2023/06/21 00:09:16;;;;;;;17.17;14.98;;;19.60;99.90;;;;;;5034836;28;20455;-77
2023/06/21 00:11:42;;;;;;;19.38;14.23;;;19.60;99.90;;;;;;5050217;28;20048;-79
2023/06/21 00:14:08;;;;;;;20.38;15.25;;;19.50;99.90;;;;;;5046693;28;20029;-79
2023/06/21 00:16:34;;;;;;;20.58;14.98;;;19.40;99.90;;;;;;5049585;28;20036;-79
2023/06/21 00:19:01;;;;;;;19.77;15.15;;;19.30;99.90;;;;;;5045905;28;20036;-78
2023/06/21 00:21:27;;;;;;;17.42;14.60;;;19.30;99.90;;;;;;5047507;28;20391;-78
2023/06/21 00:23:53;;;;;;;19.92;14.52;;;19.20;99.90;;;;;;5046955;28;20036;-79
2023/06/21 00:26:19;;;;;;;18.92;14.70;;;19.10;99.90;;;;;;5047091;28;20032;-78
2023/06/21 00:28:45;;;;;;;17.58;14.73;;;19.10;99.90;;;;;;5032524;28;20052;-77
2023/06/21 00:31:11;;;;;;;21.60;16.00;;;19.10;99.90;;;;;;5047526;28;20658;-77
2023/06/21 00:33:38;;;;;;;17.63;15.68;;;19.10;99.90;;;;;;5049124;28;20376;-78
2023/06/21 00:36:05;;;;;;;20.65;15.35;;;19.10;99.90;;;;;;5048319;28;20041;-78
2023/06/21 00:38:34;;;;;;;19.00;15.60;;;19.10;99.90;;;;;;5049722;28;20036;-78
2023/06/21 00:41:07;;;;;;;19.17;14.68;;;19.10;99.90;;;;;;5048058;28;20070;-78
2023/06/21 00:43:33;;;;;;;21.27;15.10;;;19.10;99.90;;;;;;5041954;28;20033;-80
2023/06/21 00:46:00;;;;;;;18.08;15.38;;;19.20;99.90;;;;;;5048800;28;20448;-79
2023/06/21 00:48:28;;;;;;;17.30;15.20;;;19.20;99.90;;;;;;5046688;28;20033;-78
2023/06/21 00:50:56;;;;;;;17.42;15.27;;;19.20;99.90;;;;;;5047338;28;20037;-79
2023/06/21 00:53:24;;;;;;;18.90;15.38;;;19.10;99.90;;;;;;5047186;28;20044;-79
2023/06/21 00:55:54;;;;;;;17.92;14.43;;;19.10;99.90;;;;;;5047291;28;20048;-80
2023/06/21 00:58:23;;;;;;;17.60;13.82;;;18.90;99.90;;;;;;5047139;28;20048;-78
2023/06/21 01:00:52;;;;;;;18.33;13.95;;;18.80;99.90;;;;;;5049118;28;20033;-78
2023/06/21 01:03:20;;;;;;;17.48;15.52;;;18.70;99.90;;;;;;5032844;28;20044;-78
2023/06/21 01:06:22;;;;;;;16.35;14.02;;;18.70;99.90;;;;;;5049396;28;20037;-77
2023/06/21 01:09:21;;;;;;;16.98;14.55;;;18.80;99.90;;;;;;5047971;28;20033;-78
2023/06/21 01:11:53;;;;;;;17.42;13.90;;;18.90;99.90;;;;;;5044084;28;20042;-79
2023/06/21 01:14:36;;;;;;;20.77;15.07;;;18.80;99.90;;;;;;5050342;28;20033;-79
2023/06/21 01:17:05;;;;;;;18.63;15.23;;;18.80;99.90;;;;;;5043561;28;20029;-79
2023/06/21 01:19:42;;;;;;;18.05;15.65;;;18.80;99.90;;;;;;5050102;28;20029;-79
2023/06/21 01:22:25;;;;;;;19.40;16.80;;;18.80;99.90;;;;;;5045543;28;20037;-78
2023/06/21 01:25:20;;;;;;;18.88;14.88;;;18.90;99.90;;;;;;5047176;28;20767;-79
2023/06/21 01:28:10;;;;;;;18.20;14.68;;;19.00;99.90;;;;;;5052217;28;20037;-78
2023/06/21 01:30:37;;;;;;;17.58;14.70;;;18.90;99.90;;;;;;5051273;28;20403;-78
2023/06/21 01:33:07;;;;;;;20.85;15.25;;;18.90;99.90;;;;;;5021758;28;20061;-79
2023/06/21 01:35:33;;;;;;;15.27;13.23;;;18.90;99.90;;;;;;5043602;28;20369;-79
2023/06/21 01:38:02;;;;;;;17.15;14.25;;;18.80;99.90;;;;;;5032893;28;20052;-79
2023/06/21 01:40:28;;;;;;;22.08;14.55;;;18.80;99.90;;;;;;5047223;28;20039;-79
2023/06/21 01:42:55;;;;;;;17.33;14.95;;;18.80;99.90;;;;;;5044707;28;20049;-80
2023/06/21 01:45:24;;;;;;;22.63;14.23;;;18.70;99.90;;;;;;5027248;28;20045;-80
2023/06/21 01:47:52;;;;;;;19.83;16.05;;;18.70;99.90;;;;;;5032401;28;20392;-80
2023/06/21 01:50:19;;;;;;;19.10;16.30;;;18.80;99.90;;;;;;5048379;28;20040;-79
2023/06/21 01:52:46;;;;;;;19.73;14.90;;;18.90;99.90;;;;;;5047837;28;20045;-79
2023/06/21 01:55:13;;;;;;;19.10;14.48;;;18.90;99.90;;;;;;5047215;28;20470;-78
2023/06/21 01:57:39;;;;;;;18.10;14.02;;;18.80;99.90;;;;;;5045989;28;20056;-79
2023/06/21 02:00:17;;;;;;;16.90;14.68;;;18.80;99.90;;;;;;5029509;28;20057;-79
2023/06/21 02:02:56;;;;;;;16.67;14.25;;;18.70;99.90;;;;;;5029236;28;20052;-78
2023/06/21 02:05:23;;;;;;;17.35;14.07;;;18.60;99.90;;;;;;5043642;28;20045;-78
2023/06/21 02:07:50;;;;;;;23.15;14.35;;;18.50;99.90;;;;;;5031528;28;20048;-78
2023/06/21 02:10:19;;;;;;;19.02;14.55;;;18.50;99.90;;;;;;5044129;28;20030;-79
2023/06/21 02:12:52;;;;;;;19.23;14.90;;;18.40;99.90;;;;;;5048659;28;20037;-79
2023/06/21 02:15:19;;;;;;;17.52;14.82;;;18.40;99.90;;;;;;5044641;28;20040;-78
2023/06/21 02:17:50;;;;;;;22.83;16.65;;;18.40;99.90;;;;;;5061511;28;20037;-79
2023/06/21 02:20:18;;;;;;;20.45;15.90;;;18.40;99.90;;;;;;5046765;28;20033;-79
2023/06/21 02:22:45;;;;;;;19.83;15.20;;;18.40;99.90;;;;;;5049522;28;20040;-78
2023/06/21 02:25:13;;;;;;;20.35;15.73;;;18.50;99.90;;;;;;5026156;28;20049;-78
2023/06/21 02:27:40;;;;;;;23.00;15.52;;;18.60;99.90;;;;;;5047509;28;20044;-78
2023/06/21 02:30:08;;;;;;;17.17;15.38;;;18.60;99.90;;;;;;5044027;28;20460;-78
2023/06/21 02:32:37;;;;;;;20.60;15.60;;;18.60;99.90;;;;;;5012822;28;20044;-78
2023/06/21 02:35:04;;;;;;;21.08;16.95;;;18.70;99.90;;;;;;5058818;28;20044;-79
2023/06/21 02:37:30;;;;;;;22.90;18.00;;;18.70;99.90;;;;;;5045954;28;20044;-78
2023/06/21 02:39:57;;;;;;;23.25;18.40;;;18.70;99.90;;;;;;5048081;28;20036;-78
2023/06/21 02:42:27;;;;;;;24.20;18.00;;;18.70;1.00;;;;;;5041910;28;20155;-79
2023/06/21 02:44:53;;;;;;;24.48;18.52;;;18.80;1.00;;;;;;5044178;28;20036;-78
2023/06/21 02:47:20;;;;;;;18.20;16.20;;;18.80;1.00;;;;;;5011529;28;20033;-79
2023/06/21 02:49:47;;;;;;;19.27;14.90;;;18.90;1.00;;;;;;5061757;28;20103;-78
2023/06/21 02:52:14;;;;;;;18.05;14.43;;;18.80;99.90;;;;;;5027923;28;20463;-78
2023/06/21 02:54:40;;;;;;;18.67;14.63;;;18.70;99.90;;;;;;5060418;28;20041;-79
2023/06/21 02:57:06;;;;;;;18.52;15.82;;;18.70;99.90;;;;;;5058086;28;20045;-78
2023/06/21 02:59:32;;;;;;;18.90;15.88;;;18.80;99.90;;;;;;5047472;28;20056;-78
2023/06/21 03:02:00;;;;;;;25.08;18.52;;;18.90;99.90;;;;;;5047402;28;20032;-79
2023/06/21 03:04:27;;;;;;;20.83;16.88;;;18.90;99.90;;;;;;5030390;28;20040;-79
2023/06/21 03:06:54;;;;;;;17.20;15.40;;;19.00;99.90;;;;;;5034581;28;20040;-78
2023/06/21 03:09:20;;;;;;;20.05;17.27;;;19.00;99.90;;;;;;5050774;28;20766;-78
2023/06/21 03:11:47;;;;;;;21.35;17.45;;;19.00;99.90;;;;;;5034667;28;20037;-78
2023/06/21 03:14:14;;;;;;;21.88;17.98;;;19.00;99.90;;;;;;5031759;28;20056;-78
2023/06/21 03:16:41;;;;;;;22.45;17.95;;;19.00;99.90;;;;;;5050508;28;20045;-79
2023/06/21 03:19:08;;;;;;;23.98;18.38;;;19.00;99.90;;;;;;5032498;28;20043;-79
2023/06/21 03:21:34;;;;;;;23.48;18.33;;;19.00;99.90;;;;;;5033947;28;20052;-79
2023/06/21 03:24:02;;;;;;;23.70;18.63;;;19.00;99.90;;;;;;5029569;28;20049;-78
2023/06/21 03:26:30;;;;;;;21.33;18.90;;;19.00;99.90;;;;;;5034550;28;20040;-78
2023/06/21 03:28:59;;;;;;;22.02;18.67;;;19.10;99.90;;;;;;5029064;28;20048;-81
2023/06/21 03:31:26;;;;;;;28.63;20.63;;;19.10;99.90;;;;;;5066324;28;20048;-80
2023/06/21 03:33:53;;;;;;;26.70;19.65;;;19.10;99.90;;;;;;5022876;28;20407;-79
2023/06/21 03:36:20;;;;;;;27.02;20.23;;;19.20;99.90;;;;;;5029267;28;20044;-78
2023/06/21 03:38:48;;;;;;;23.98;19.00;;;19.30;99.90;;;;;;5035042;28;20045;-78
2023/06/21 03:41:14;;;;;;;21.25;18.90;;;19.40;99.90;;;;;;5054284;28;20033;-78
2023/06/21 03:43:40;;;;;;;23.42;20.27;;;19.50;99.90;;;;;;5029443;28;20048;-79
2023/06/21 03:46:10;;;;;;;24.15;20.15;;;19.50;99.90;;;;;;5062434;28;20451;-79
2023/06/21 03:48:37;;;;;;;22.90;17.77;;;19.60;99.90;;;;;;5049403;28;20486;-79
2023/06/21 03:51:03;;;;;;;25.60;18.70;;;19.70;99.90;;;;;;5026185;28;20037;-79
2023/06/21 03:53:31;;;;;;;25.83;18.80;;;19.80;99.90;;;;;;5028751;28;20054;-79
2023/06/21 03:56:00;;;;;;;24.45;18.40;;;19.80;99.90;;;;;;5046534;28;20037;-79
2023/06/21 03:58:26;;;;;;;25.40;21.17;;;19.80;99.90;;;;;;5049276;28;20041;-79
2023/06/21 04:00:52;;;;;;;22.88;18.27;;;19.90;99.90;;;;;;5048044;28;20041;-79
2023/06/21 04:03:18;;;;;;;22.15;18.17;;;19.90;99.90;;;;;;5062673;28;20137;-79
2023/06/21 04:05:45;;;;;;;23.02;18.70;;;19.90;99.90;;;;;;5047212;28;20050;-79
2023/06/21 04:08:11;;;;;;;23.33;19.20;;;19.90;99.90;;;;;;5032595;28;20041;-79
2023/06/21 04:10:38;;;;;;;21.25;18.02;;;20.00;99.90;;;;;;5034084;28;20456;-79
2023/06/21 04:13:04;;;;;;;21.30;17.85;;;20.10;99.90;;;;;;5046131;28;20049;-79
2023/06/21 04:15:30;;;;;;;21.55;17.58;;;20.10;99.90;;;;;;5031275;28;20047;-79
2023/06/21 04:17:56;;;;;;;19.90;17.45;;;20.20;99.90;;;;;;5047848;28;20025;-78
2023/06/21 04:20:24;;;;;;;16.85;14.02;;;20.30;99.90;;;;;;5062377;28;20037;-79
2023/06/21 04:22:50;;;;;;;19.40;14.35;;;20.30;99.90;;;;;;5048914;28;20040;-79
2023/06/21 04:25:16;;;;;;;16.58;11.65;;;20.40;99.90;;;;;;5045605;28;20042;-79
2023/06/21 04:27:46;;;;;;;17.73;11.32;;;20.50;44.20;;;;;;5050229;28;20025;-78
2023/06/21 04:30:12;;;;;;;16.08;10.43;;;20.60;6.60;;;;;;5049667;28;20032;-79
2023/06/21 04:32:45;;;;;;;14.63;9.82;;;20.70;1.00;;;;;;5034151;28;20055;-78
2023/06/21 04:35:16;;;;;;;12.05;9.27;;;20.80;1.00;;;;;;5047007;28;20397;-80
2023/06/21 04:37:44;;;;;;;11.50;9.00;;;20.90;1.00;;;;;;5046683;28;20040;-79
2023/06/21 04:40:15;;;;;;;11.77;8.50;;;20.90;1.00;;;;;;5033026;28;20052;-80
2023/06/21 04:42:45;;;;;;;13.68;8.75;;;20.90;1.00;;;;;;5044137;28;20037;-78
2023/06/21 04:45:14;;;;;;;12.32;9.32;;;21.00;1.00;;;;;;5046700;28;20044;-79
2023/06/21 04:47:41;;;;;;;15.43;10.32;;;20.90;1.00;;;;;;5044292;28;20028;-79
2023/06/21 04:50:10;;;;;;;10.68;8.73;;;20.90;1.00;;;;;;5046774;28;20046;-80
2023/06/21 04:52:37;;;;;;;13.80;9.85;;;20.80;1.00;;;;;;5046985;28;20032;-79
2023/06/21 04:55:05;;;;;;;14.43;10.80;;;20.60;1.00;;;;;;5043640;28;20426;-79
2023/06/21 04:57:32;;;;;;;15.38;10.98;;;20.50;24.20;;;;;;5046982;28;20040;-78
2023/06/21 04:59:58;;;;;;;12.80;11.05;;;20.40;34.30;;;;;;5047857;28;20033;-78
2023/06/21 05:02:25;;;;;;;13.55;11.20;;;20.30;47.50;;;;;;5049526;28;20794;-77
2023/06/21 05:04:51;;;;;;;16.38;11.05;;;20.10;74.30;;;;;;5047726;28;20502;-77
2023/06/21 05:07:18;;;;;;;17.45;13.05;;;20.10;95.90;;;;;;5046102;28;20033;-78
2023/06/21 05:09:44;;;;;;;13.73;12.27;;;20.00;99.90;;;;;;5048933;28;20383;-78
2023/06/21 05:12:10;;;;;;;14.43;12.93;;;20.10;99.90;;;;;;5046423;28;20403;-78
2023/06/21 05:14:36;;;;;;;19.40;14.45;;;20.00;99.90;;;;;;5047664;28;20041;-78
2023/06/21 05:17:03;;;;;;;18.48;15.57;;;19.80;99.90;;;;;;5049824;28;20037;-78
2023/06/21 05:19:29;;;;;;;15.85;14.15;;;19.80;99.90;;;;;;5048484;28;20375;-76
2023/06/21 05:21:55;;;;;;;19.70;16.98;;;19.80;99.90;;;;;;5048137;28;20044;-77
2023/06/21 05:24:21;;;;;;;19.38;15.82;;;20.00;99.90;;;;;;5044175;28;20845;-78
2023/06/21 05:26:47;;;;;;;18.98;15.93;;;20.30;99.90;;;;;;5048050;28;20025;-77
2023/06/21 05:29:14;;;;;;;15.63;13.88;;;20.60;99.90;;;;;;5029198;28;20041;-78
2023/06/21 05:31:43;;;;;;;17.58;13.30;;;20.80;99.90;;;;;;5049183;28;20495;-78
2023/06/21 05:34:10;;;;;;;16.10;12.18;;;20.90;99.90;;;;;;5044406;28;20041;-78
2023/06/21 05:36:36;;;;;;;16.00;12.50;;;20.80;85.80;;;;;;5047222;28;20029;-78
2023/06/21 05:39:03;;;;;;;14.32;11.65;;;20.60;86.90;;;;;;5051009;28;20033;-78
2023/06/21 05:41:32;;;;;;;16.33;10.65;;;20.50;55.90;;;;;;5047547;28;20044;-77
2023/06/21 05:43:58;;;;;;;18.47;12.47;;;20.40;39.40;;;;;;5045613;28;20033;-78
2023/06/21 05:46:25;;;;;;;15.95;13.63;;;20.50;54.00;;;;;;5047560;28;20044;-77
2023/06/21 05:48:51;;;;;;;14.90;12.00;;;20.50;60.90;;;;;;5046407;28;20033;-78
2023/06/21 05:51:17;;;;;;;15.40;11.73;;;20.50;30.30;;;;;;5045286;28;20040;-77
2023/06/21 05:53:43;;;;;;;13.25;11.48;;;20.60;26.80;;;;;;5030389;28;20057;-77
2023/06/21 05:56:09;;;;;;;13.63;10.98;;;20.80;14.10;;;;;;5060998;28;20052;-78
2023/06/21 05:58:35;;;;;;;15.50;10.82;;;21.00;6.40;;;;;;5047366;28;20053;-77
2023/06/21 06:01:02;;;;;;;12.48;9.95;;;21.30;1.00;;;;;;5044708;28;20037;-77
2023/06/21 06:03:30;;;;;;;11.25;9.60;;;21.80;1.00;;;;;;5028729;28;20085;-78
2023/06/21 06:05:56;;;;;;;10.90;9.40;;;22.40;1.00;;;;;;5044570;28;20036;-82
2023/06/21 06:08:22;;;;;;;10.63;8.73;;;23.30;1.00;;;;;;5060318;28;20036;-83
2023/06/21 06:10:48;;;;;;;10.27;9.13;;;24.00;99.90;;;;;;5053097;28;20048;-83
2023/06/21 06:13:15;;;;;;;9.63;8.60;;;24.80;99.90;;;;;;5062687;28;20037;-85
2023/06/21 06:15:41;;;;;;;9.57;7.70;;;25.40;99.90;;;;;;5047563;28;20029;-85
2023/06/21 06:18:07;;;;;;;11.73;7.53;;;25.80;99.90;;;;;;5042673;28;20030;-86
2023/06/21 06:20:33;;;;;;;9.88;7.28;;;26.30;99.90;;;;;;5043308;28;20048;-87
2023/06/21 06:23:01;;;;;;;15.52;8.30;;;26.50;84.90;;;;;;5034796;28;20048;-87
2023/06/21 06:25:27;;;;;;;10.07;7.95;;;27.10;45.20;;;;;;5039448;28;20037;-86
2023/06/21 06:27:53;;;;;;;10.88;6.40;;;27.50;1.00;;;;;;5044103;28;20109;-86
2023/06/21 06:30:19;;;;;;;6.75;5.82;;;27.90;1.00;;;;;;5049280;28;20045;-87
2023/06/21 06:32:46;;;;;;;13.63;6.10;;;28.10;1.00;;;;;;5060028;28;20136;-87
2023/06/21 06:35:12;;;;;;;7.55;5.93;;;28.20;1.00;;;;;;5048277;28;20048;-88
2023/06/21 06:37:38;;;;;;;10.13;6.82;;;27.40;1.00;;;;;;5037727;28;20479;-87
2023/06/21 06:40:05;;;;;;;8.13;5.88;;;27.80;1.00;;;;;;5053650;28;20037;-87
2023/06/21 06:42:31;;;;;;;9.00;6.00;;;27.60;1.00;;;;;;5026979;28;20049;-85
2023/06/21 06:44:57;;;;;;;6.43;5.82;;;27.30;1.00;;;;;;5052107;28;20039;-87
2023/06/21 06:47:23;;;;;;;9.68;6.25;;;27.70;1.00;;;;;;5050892;28;20033;-87
2023/06/21 06:49:49;;;;;;;7.10;5.88;;;28.00;1.00;;;;;;5052763;28;20025;-88
2023/06/21 06:52:16;;;;;;;8.68;5.78;;;28.20;99.90;;;;;;5049352;28;20041;-87
2023/06/21 06:54:42;;;;;;;7.65;6.15;;;27.20;1.00;;;;;;5027158;28;20048;-85
2023/06/21 06:57:08;;;;;;;8.15;5.90;;;26.90;1.00;;;;;;5051550;28;20029;-87
2023/06/21 06:59:34;;;;;;;7.97;5.93;;;27.50;1.00;;;;;;5049990;28;20059;-87
2023/06/21 07:02:00;;;;;;;7.93;5.32;;;28.50;1.00;;;;;;5052880;28;20037;-88
2023/06/21 07:04:28;;;;;;;9.00;5.57;;;28.50;99.90;;;;;;5028337;28;20194;-84
2023/06/21 07:06:57;;;;;;;6.55;5.15;;;28.70;99.90;;;;;;5053100;28;20033;-88
2023/06/21 07:09:24;;;;;;;6.70;5.68;;;28.80;99.90;;;;;;5044396;28;20037;-87
2023/06/21 07:11:50;;;;;;;10.00;5.05;;;28.50;99.90;;;;;;5050190;28;20056;-88
2023/06/21 07:14:17;;;;;;;6.78;4.88;;;28.10;99.90;;;;;;5083128;28;20043;-86
2023/06/21 07:16:48;;;;;;;9.77;5.80;;;28.00;99.90;;;;;;5064397;28;20029;-86
2023/06/21 07:19:14;;;;;;;7.45;5.03;;;28.50;99.90;;;;;;5040090;28;20057;-87
2023/06/21 07:21:40;;;;;;;8.80;5.88;;;28.80;99.90;;;;;;5039660;28;20056;-86
2023/06/21 07:24:07;;;;;;;8.88;6.25;;;28.20;99.90;;;;;;5042860;28;20040;-87
2023/06/21 07:26:33;;;;;;;6.63;5.15;;;27.00;1.00;;;;;;5049508;28;20040;-86
2023/06/21 07:29:00;;;;;;;13.38;7.03;;;26.90;1.00;;;;;;5049637;28;20492;-88
2023/06/21 07:31:26;;;;;;;8.32;5.32;;;27.00;1.00;;;;;;5048116;28;20405;-86
2023/06/21 07:34:00;;;;;;;9.13;6.05;;;26.80;1.00;;;;;;5047576;28;20077;-86
2023/06/21 07:36:27;;;;;;;7.63;5.65;;;27.10;1.00;;;;;;5048533;28;20037;-86
2023/06/21 07:38:54;;;;;;;7.30;6.22;;;26.90;1.00;;;;;;5051594;28;20033;-86
2023/06/21 07:41:20;;;;;;;7.13;5.78;;;26.80;1.00;;;;;;5050573;28;20025;-86
2023/06/21 07:43:46;;;;;;;7.75;6.25;;;26.70;1.00;;;;;;5053347;28;20037;-85
2023/06/21 07:46:12;;;;;;;6.90;6.20;;;27.40;1.00;;;;;;5053085;28;20147;-86
2023/06/21 07:48:38;;;;;;;7.63;5.43;;;27.90;99.90;;;;;;5067215;28;20036;-85
2023/06/21 07:51:05;;;;;;;7.97;5.88;;;27.00;1.00;;;;;;5048572;28;20044;-86
2023/06/21 07:53:31;;;;;;;7.40;6.03;;;26.30;1.00;;;;;;5049725;28;20029;-85
2023/06/21 07:56:00;;;;;;;8.95;5.30;;;25.70;1.00;;;;;;5063864;28;20048;-85
2023/06/21 07:58:26;;;;;;;8.25;6.60;;;25.40;1.00;;;;;;5048707;28;20056;-85
2023/06/21 08:00:52;;;;;;;7.28;5.68;;;25.00;1.00;;;;;;5050178;28;20044;-85
2023/06/21 08:03:18;;;;;;;7.88;6.32;;;25.00;1.00;;;;;;5038611;28;20053;-86
2023/06/21 08:05:45;;;;;;;8.65;5.93;;;24.90;1.00;;;;;;5048678;28;20029;-83
2023/06/21 08:08:11;;;;;;;7.72;6.78;;;24.80;1.00;;;;;;5048862;28;20033;-84
2023/06/21 08:10:38;;;;;;;11.35;7.13;;;24.70;1.00;;;;;;5049680;28;20043;-86
2023/06/21 08:13:04;;;;;;;6.57;5.57;;;24.80;1.00;;;;;;5050457;28;20044;-83
2023/06/21 08:15:30;;;;;;;6.63;5.68;;;25.60;1.00;;;;;;5049612;28;20037;-84
2023/06/21 08:17:56;;;;;;;7.22;5.50;;;26.30;1.00;;;;;;5047531;28;20029;-86
2023/06/21 08:20:22;;;;;;;7.28;5.20;;;26.40;1.00;;;;;;5044132;28;20040;-85
2023/06/21 08:22:48;;;;;;;6.25;5.35;;;26.70;1.00;;;;;;5030741;28;20049;-86
2023/06/21 08:25:14;;;;;;;9.65;5.97;;;27.00;1.00;;;;;;5053043;28;20033;-86
2023/06/21 08:27:40;;;;;;;8.75;6.18;;;27.20;1.00;;;;;;5044682;28;20048;-85
2023/06/21 08:30:07;;;;;;;8.27;5.40;;;27.40;99.90;;;;;;5048819;28;20026;-85
2023/06/21 08:32:33;;;;;;;7.75;4.75;;;26.60;1.00;;;;;;5035069;28;20486;-86
2023/06/21 08:34:59;;;;;;;6.97;5.07;;;26.10;1.00;;;;;;5045227;28;20044;-83
2023/06/21 08:37:26;;;;;;;7.03;4.45;;;25.80;1.00;;;;;;5049122;28;20043;-86
2023/06/21 08:39:52;;;;;;;8.25;5.00;;;25.50;1.00;;;;;;5050186;28;20040;-86
2023/06/21 08:42:19;;;;;;;6.70;4.07;;;25.70;1.00;;;;;;5047489;28;20041;-85
2023/06/21 08:44:46;;;;;;;6.00;4.40;;;25.40;1.00;;;;;;5052839;28;20037;-84
2023/06/21 08:47:14;;;;;;;5.95;4.32;;;25.40;1.00;;;;;;5051879;28;20040;-85
2023/06/21 08:49:42;;;;;;;5.40;3.92;;;25.40;1.00;;;;;;5064519;28;20033;-85
2023/06/21 08:52:17;;;;;;;4.95;4.35;;;25.40;1.00;;;;;;5066832;28;20040;-84
2023/06/21 08:54:49;;;;;;;5.35;4.28;;;25.40;1.00;;;;;;5043982;28;20062;-84
2023/06/21 08:57:22;;;;;;;6.57;4.55;;;25.20;1.00;;;;;;5046417;28;20064;-83
2023/06/21 08:59:59;;;;;;;6.07;3.80;;;25.00;1.00;;;;;;5048428;28;20439;-84
2023/06/21 09:02:34;;;;;;;6.63;4.68;;;25.00;1.00;;;;;;5013684;28;20060;-85
2023/06/21 09:05:06;;;;;;;4.65;3.85;;;25.20;1.00;;;;;;5032213;28;20053;-85
2023/06/21 09:07:34;;;;;;;5.47;4.57;;;25.70;1.00;;;;;;5029392;28;20380;-81
2023/06/21 09:10:03;;;;;;;6.55;4.38;;;26.00;1.00;;;;;;5047021;28;20045;-86
2023/06/21 09:12:30;;;;;;;7.57;4.57;;;26.30;1.00;;;;;;5048012;28;20056;-86
2023/06/21 09:14:57;;;;;;;5.90;3.78;;;27.00;99.90;;;;;;5048653;28;20045;-85
2023/06/21 09:17:24;;;;;;;7.30;4.03;;;27.30;99.90;;;;;;5048913;28;20033;-86
2023/06/21 09:19:52;;;;;;;6.55;5.55;;;26.90;99.90;;;;;;5046779;28;20036;-85
2023/06/21 09:22:19;;;;;;;7.85;5.03;;;26.50;99.90;;;;;;5030800;28;20471;-86
2023/06/21 09:24:45;;;;;;;8.15;4.22;;;26.10;1.00;;;;;;5048630;28;20040;-85
2023/06/21 09:27:11;;;;;;;5.57;4.60;;;26.80;1.00;;;;;;5048224;28;20044;-85
2023/06/21 09:29:38;;;;;;;4.93;4.13;;;27.10;99.90;;;;;;5046604;28;20044;-85
2023/06/21 09:32:04;;;;;;;6.15;4.38;;;27.20;99.90;;;;;;5045538;28;20860;-85
2023/06/21 09:34:30;;;;;;;6.68;4.78;;;27.50;99.90;;;;;;5047570;28;20370;-86
2023/06/21 09:36:56;;;;;;;5.85;4.65;;;27.80;99.90;;;;;;5063184;28;20040;-86
2023/06/21 09:39:27;;;;;;;6.18;4.60;;;28.00;99.90;;;;;;5048366;28;20029;-83
2023/06/21 09:41:54;;;;;;;7.07;4.70;;;28.30;99.90;;;;;;5050899;28;20047;-86
2023/06/21 09:44:20;;;;;;;5.60;4.72;;;27.60;99.90;;;;;;5048458;28;20033;-85
2023/06/21 09:46:47;;;;;;;7.82;5.22;;;27.50;99.90;;;;;;5047242;28;20375;-85
2023/06/21 09:49:16;;;;;;;5.70;4.38;;;27.10;99.90;;;;;;5047340;28;20032;-83
2023/06/21 09:51:44;;;;;;;6.95;5.47;;;27.10;1.00;;;;;;5027506;28;20041;-86
2023/06/21 09:54:10;;;;;;;6.57;5.35;;;27.00;1.00;;;;;;5046182;28;20379;-85
2023/06/21 09:56:40;;;;;;;9.95;5.28;;;27.00;1.00;;;;;;5044173;28;20044;-85
2023/06/21 09:59:19;;;;;;;5.70;5.10;;;27.20;1.00;;;;;;5047060;28;20048;-84
2023/06/21 10:01:48;;;;;;;8.15;5.25;;;27.20;99.90;;;;;;5049493;28;20079;-85
2023/06/21 10:04:15;;;;;;;6.00;5.00;;;27.10;99.90;;;;;;5043955;28;20052;-84
2023/06/21 10:06:49;;;;;;;7.47;5.72;;;26.70;1.00;;;;;;5047987;28;20029;-86
2023/06/21 10:09:16;;;;;;;6.63;5.22;;;26.60;1.00;;;;;;5040887;28;20043;-83
2023/06/21 10:11:45;;;;;;;6.50;5.32;;;26.40;1.00;;;;;;5047752;28;20069;-84
2023/06/21 10:14:22;;;;;;;6.75;5.43;;;26.10;1.00;;;;;;5042052;28;20043;-84
2023/06/21 10:16:50;;;;;;;6.88;5.57;;;26.00;1.00;;;;;;5048194;28;20485;-85
2023/06/21 10:19:24;;;;;;;7.00;5.55;;;26.00;1.00;;;;;;5042626;28;20029;-84
2023/06/21 10:22:09;;;;;;;7.93;5.57;;;26.40;1.00;;;;;;5050306;28;20383;-85
2023/06/21 10:24:48;;;;;;;6.93;5.55;;;26.70;1.00;;;;;;5045282;28;20064;-85
2023/06/21 10:27:15;;;;;;;7.25;5.63;;;26.70;1.00;;;;;;5056336;28;20048;-85
2023/06/21 10:29:43;;;;;;;7.90;5.53;;;26.70;1.00;;;;;;5046328;28;20033;-87
2023/06/21 10:32:10;;;;;;;6.35;5.43;;;26.70;1.00;;;;;;5046376;28;20036;-85
2023/06/21 10:34:55;;;;;;;6.38;5.63;;;26.70;1.00;;;;;;5043541;28;20040;-83
2023/06/21 10:37:32;;;;;;;6.03;5.20;;;26.60;1.00;;;;;;5041827;28;20040;-85
2023/06/21 10:40:05;;;;;;;6.57;4.78;;;26.80;1.00;;;;;;5046793;28;20399;-85
2023/06/21 10:42:32;;;;;;;7.03;4.95;;;27.10;1.00;;;;;;5028068;28;20040;-86
2023/06/21 10:44:59;;;;;;;7.45;4.78;;;26.90;1.00;;;;;;5044158;28;20025;-86
2023/06/21 10:47:26;;;;;;;6.15;5.32;;;27.00;1.00;;;;;;5044926;28;20340;-87
2023/06/21 10:49:57;;;;;;;10.20;5.55;;;27.40;99.90;;;;;;5046107;28;20033;-84
2023/06/21 10:52:26;;;;;;;8.13;5.05;;;27.10;99.90;;;;;;5047335;28;20040;-85
2023/06/21 10:54:56;;;;;;;5.95;5.18;;;27.00;99.90;;;;;;5041903;28;20468;-85
2023/06/21 10:57:25;;;;;;;10.38;5.53;;;26.90;99.90;;;;;;5040567;28;20045;-85
2023/06/21 10:59:56;;;;;;;9.00;5.22;;;27.10;99.90;;;;;;5042692;28;20041;-85
2023/06/21 11:02:23;;;;;;;6.13;5.53;;;27.20;99.90;;;;;;5045281;28;20033;-85
2023/06/21 11:05:14;;;;;;;5.85;5.05;;;27.50;99.90;;;;;;5041399;28;20059;-84
2023/06/21 11:07:52;;;;;;;7.80;5.38;;;27.50;99.90;;;;;;5044704;28;20048;-85
2023/06/21 11:10:53;;;;;;;6.97;5.45;;;27.20;99.90;;;;;;5044007;28;20025;-84
2023/06/21 11:13:37;;;;;;;6.53;5.63;;;27.40;99.90;;;;;;5044737;28;20037;-84
2023/06/21 11:16:15;;;;;;;7.65;5.45;;;27.50;99.90;;;;;;5047222;28;20049;-84
2023/06/21 11:18:57;;;;;;;7.38;5.70;;;26.90;99.90;;;;;;5046626;28;20033;-86
2023/06/21 11:22:13;;;;;;;6.80;5.50;;;26.50;99.90;;;;;;5046904;28;20068;-84
2023/06/21 11:24:49;;;;;;;8.40;5.53;;;26.40;1.00;;;;;;4969565;28;20462;-83
2023/06/21 11:27:15;;;;;;;8.85;6.45;;;26.90;1.00;;;;;;4960423;28;20047;-83
2023/06/21 11:29:41;;;;;;;6.82;5.47;;;27.40;99.90;;;;;;4972111;28;20047;-83
2023/06/21 11:32:12;;;;;;;6.40;5.00;;;28.00;99.90;;;;;;4972248;28;20058;-84
2023/06/21 11:34:58;;;;;;;7.30;5.75;;;28.60;99.90;;;;;;4970360;28;20038;-83
2023/06/21 11:37:32;;;;;;;7.90;5.68;;;28.40;99.90;;;;;;4972227;28;20053;-82
2023/06/21 11:40:04;;;;;;;7.38;5.45;;;28.00;99.90;;;;;;4976282;28;20042;-83
2023/06/21 11:42:52;;;;;;;7.85;5.65;;;27.80;99.90;;;;;;4974313;28;20047;-82
2023/06/21 11:45:24;;;;;;;7.40;5.35;;;27.50;99.90;;;;;;4971210;28;20047;-84
2023/06/21 11:48:00;;;;;;;6.88;4.97;;;27.30;99.90;;;;;;4972419;28;20037;-84
2023/06/21 11:50:44;;;;;;;8.65;5.47;;;27.20;99.90;;;;;;4971626;28;20046;-85
2023/06/21 11:53:29;;;;;;;7.93;5.32;;;27.50;99.90;;;;;;4970041;28;20043;-83
2023/06/21 11:55:58;;;;;;;7.00;5.07;;;27.80;99.90;;;;;;5015386;28;20072;-83
2023/06/21 11:58:25;;;;;;;5.95;5.15;;;28.40;99.90;;;;;;5047479;28;20056;-85
2023/06/21 12:00:52;;;;;;;11.38;4.82;;;28.70;99.90;;;;;;5047433;28;20037;-83
2023/06/21 12:03:26;;;;;;;6.88;4.85;;;28.90;99.90;;;;;;5047562;28;20041;-85
2023/06/21 12:06:01;;;;;;;5.93;4.63;;;28.90;99.90;;;;;;5032431;28;20036;-86
2023/06/21 12:08:32;;;;;;;6.45;5.65;;;29.10;99.90;;;;;;5049214;28;20037;-88
2023/06/21 12:11:09;;;;;;;6.53;5.75;;;28.80;99.90;;;;;;5051649;28;20033;-87
2023/06/21 12:13:37;;;;;;;6.80;5.65;;;28.60;99.90;;;;;;5047956;28;20033;-86
2023/06/21 12:16:05;;;;;;;6.13;5.00;;;28.40;99.90;;;;;;5050844;28;20041;-88
2023/06/21 12:18:33;;;;;;;8.18;5.47;;;28.30;99.90;;;;;;5048063;28;20029;-88
2023/06/21 12:21:02;;;;;;;7.07;5.22;;;28.30;99.90;;;;;;5048992;28;20033;-87
2023/06/21 12:23:28;;;;;;;8.60;5.70;;;28.20;99.90;;;;;;5047559;28;20036;-84
2023/06/21 12:25:56;;;;;;;5.78;4.80;;;28.10;99.90;;;;;;5063440;28;20052;-85
2023/06/21 12:28:23;;;;;;;7.28;5.35;;;27.50;99.90;;;;;;5048571;28;20029;-86
2023/06/21 12:30:59;;;;;;;6.95;5.38;;;27.80;99.90;;;;;;5047140;28;20483;-85
2023/06/21 12:33:52;;;;;;;6.72;4.97;;;28.00;99.90;;;;;;5046739;28;20029;-86
2023/06/21 12:36:28;;;;;;;7.22;4.95;;;28.20;99.90;;;;;;5026585;28;20049;-86
2023/06/21 12:39:07;;;;;;;7.20;4.80;;;28.40;99.90;;;;;;5047055;28;20037;-84
2023/06/21 12:41:34;;;;;;;7.07;5.80;;;28.30;99.90;;;;;;5046456;28;20081;-86
2023/06/21 12:44:07;;;;;;;7.93;5.50;;;28.80;99.90;;;;;;5047217;28;20029;-85
2023/06/21 12:46:39;;;;;;;9.30;5.75;;;28.30;99.90;;;;;;5050838;28;20029;-86
2023/06/21 12:49:05;;;;;;;7.07;5.10;;;28.00;99.90;;;;;;5032951;28;20039;-86
2023/06/21 12:51:36;;;;;;;10.05;4.82;;;28.30;99.90;;;;;;5048448;28;20415;-88